Time;durP1;ratioP1;P1;durP2;ratioP2;P2;SDS_P1;SDS_P2;PMS_P1;PMS_P2;Temp;Humidity;BMP_temperature;BMP_pressure;BME280_temperature;BME280_humidity;BME280_pressure;Samples;Min_cycle;Max_cycle;Signal;HPM_P1;HPM_P2
2022/03/04 00:01:11;;;;;;;136.82;77.10;;;25.90;2201.60;;;;;;4937950;29;20031;-78
2022/03/04 00:03:38;;;;;;;163.55;91.47;;;26.10;2201.60;;;;;;4937519;29;20055;-80
2022/03/04 00:06:04;;;;;;;173.02;93.95;;;26.00;2201.60;;;;;;4937996;29;20041;-78
2022/03/04 00:08:30;;;;;;;113.97;61.72;;;25.80;2201.60;;;;;;4938060;29;20078;-80
2022/03/04 00:10:55;;;;;;;92.40;54.03;;;25.60;2201.60;;;;;;4937634;29;20020;-80
2022/03/04 00:13:21;;;;;;;127.15;66.30;;;25.70;2201.60;;;;;;4938045;29;20119;-81
2022/03/04 00:15:47;;;;;;;151.20;78.53;;;25.80;2201.60;;;;;;4937767;29;20019;-78
2022/03/04 00:18:13;;;;;;;171.88;82.95;;;26.00;2201.60;;;;;;4943678;29;20027;-78
2022/03/04 00:20:39;;;;;;;130.07;67.35;;;25.90;2201.60;;;;;;4939944;29;20489;-78
2022/03/04 00:23:05;;;;;;;109.88;62.40;;;25.70;2201.60;;;;;;4954729;28;20027;-81
2022/03/04 00:25:31;;;;;;;112.35;57.03;;;0.90;2201.60;;;;;;4953767;29;20032;-82
2022/03/04 00:27:57;;;;;;;114.82;61.65;;;0.90;2201.60;;;;;;4941473;29;20027;-82
2022/03/04 00:30:23;;;;;;;131.88;73.00;;;0.90;2201.60;;;;;;4937295;29;20110;-81
2022/03/04 00:32:48;;;;;;;99.70;54.70;;;25.60;2201.60;;;;;;4948218;29;20043;-80
2022/03/04 00:35:17;;;;;;;82.60;45.00;;;25.70;2201.60;;;;;;4955034;28;20370;-82
2022/03/04 00:37:43;;;;;;;72.75;39.63;;;25.70;2201.60;;;;;;4953448;29;20061;-81
2022/03/04 00:40:10;;;;;;;71.72;37.83;;;25.70;2201.60;;;;;;4947346;29;20097;-78
2022/03/04 00:42:36;;;;;;;107.70;55.53;;;25.80;2201.60;;;;;;4937333;29;20039;-79
2022/03/04 00:45:03;;;;;;;87.00;46.70;;;25.80;2201.60;;;;;;4937192;29;20070;-79
2022/03/04 00:47:29;;;;;;;104.70;51.80;;;26.20;2201.60;;;;;;4937799;29;20026;-80
2022/03/04 00:49:55;;;;;;;72.78;42.67;;;25.70;2201.60;;;;;;4940790;29;20024;-80
2022/03/04 00:52:21;;;;;;;66.22;35.85;;;25.70;2201.60;;;;;;4953863;29;20027;-80
2022/03/04 00:54:52;;;;;;;54.03;33.47;;;25.60;2201.60;;;;;;4960952;29;20361;-86
2022/03/04 00:57:24;;;;;;;60.45;33.70;;;0.90;2201.60;;;;;;4941531;29;20405;-84
2022/03/04 00:59:57;;;;;;;49.38;29.60;;;25.60;2201.60;;;;;;4940895;29;20027;-82
2022/03/04 01:05:54;;;;;;;69.50;38.47;;;0.70;2201.60;;;;;;4953938;29;20054;-83
2022/03/04 01:08:20;;;;;;;82.15;44.53;;;0.90;2201.60;;;;;;4941054;29;20015;-83
2022/03/04 01:11:11;;;;;;;72.47;38.28;;;0.90;2201.60;;;;;;4941205;29;20078;-84
2022/03/04 01:14:12;;;;;;;;;;;;;;;;;;;;;
2022/03/04 01:17:12;;;;;;;47.15;27.88;;;0.90;2201.60;;;;;;4957663;29;20420;-84
2022/03/04 01:20:23;;;;;;;;;;;;;;;;;;;;;
2022/03/04 01:23:41;;;;;;;;;;;;;;;;;;;;;
2022/03/04 01:26:48;;;;;;;;;;;;;;;;;;;;;
2022/03/04 01:30:31;;;;;;;44.50;26.20;;;0.90;2201.60;;;;;;4879561;29;20498;-81
2022/03/04 01:47:37;;;;;;;59.03;31.23;;;0.60;2201.60;;;;;;4909123;29;20389;-82
2022/03/04 01:50:16;;;;;;;60.40;34.67;;;0.70;2201.60;;;;;;4939810;29;20031;-84
2022/03/04 01:52:57;;;;;;;59.63;33.83;;;0.70;2201.60;;;;;;4940173;29;20034;-84
2022/03/04 01:56:00;;;;;;;;;;;;;;;;;;;;;
2022/03/04 01:59:05;;;;;;;56.55;33.28;;;0.80;2201.60;;;;;;4957353;29;20472;-80
2022/03/04 02:01:39;;;;;;;49.42;27.15;;;0.90;2201.60;;;;;;4936338;29;20037;-80
2022/03/04 02:04:08;;;;;;;49.63;27.80;;;0.70;2201.60;;;;;;4939941;29;20027;-81
2022/03/04 02:06:37;;;;;;;54.70;29.45;;;0.50;2201.60;;;;;;4939643;29;20035;-82
2022/03/04 02:09:32;;;;;;;48.85;29.08;;;0.60;2201.60;;;;;;4938618;29;20031;-82
2022/03/04 02:12:15;;;;;;;51.90;28.60;;;0.40;2201.60;;;;;;4939071;29;20046;-83
2022/03/04 02:15:05;;;;;;;56.47;33.00;;;0.30;2201.60;;;;;;4939279;29;20027;-83
2022/03/04 02:17:37;;;;;;;85.30;44.13;;;0.30;2201.60;;;;;;4938171;29;20038;-83
2022/03/04 02:20:27;;;;;;;60.78;29.90;;;0.20;2201.60;;;;;;4938855;29;20476;-84
2022/03/04 02:23:20;;;;;;;52.70;30.90;;;0.30;2201.60;;;;;;4939047;29;20034;-82
2022/03/04 02:29:40;;;;;;;;;;;;;;;;;;;;;
2022/03/04 02:32:24;;;;;;;59.35;31.13;;;0.00;2201.60;;;;;;4955675;29;20026;-82
2022/03/04 02:35:29;;;;;;;;;;;;;;;;;;;;;
2022/03/04 02:38:24;;;;;;;77.90;41.50;;;12.90;2201.60;;;;;;4955842;29;20469;-83
2022/03/04 02:41:08;;;;;;;92.93;45.45;;;0.00;2201.60;;;;;;4938989;29;20078;-83
2022/03/04 02:44:00;;;;;;;90.45;47.97;;;0.10;2201.60;;;;;;4938162;29;20473;-81
2022/03/04 02:46:52;;;;;;;65.40;38.50;;;0.00;2201.60;;;;;;4939109;29;20078;-83
2022/03/04 03:56:12;;;;;;;56.65;29.50;;;13.70;2201.60;;;;;;4960346;28;20039;-83
2022/03/04 03:59:16;;;;;;;;;;;;;;;;;;;;;
2022/03/04 04:01:47;;;;;;;50.83;29.10;;;13.70;2201.60;;;;;;4955130;29;20358;-81
2022/03/04 04:07:32;;;;;;;43.35;27.20;;;38.40;2201.60;;;;;;4955293;29;20035;-81
2022/03/04 04:11:02;;;;;;;;;;;;;;;;;;;;;
2022/03/04 04:17:51;;;;;;;105.20;54.17;;;38.40;2201.60;;;;;;4920036;29;20038;-80
2022/03/04 04:21:56;;;;;;;80.53;43.15;;;38.40;2201.60;;;;;;4885692;29;20036;-82
2022/03/04 04:35:00;;;;;;;49.17;27.13;;;13.70;2201.60;;;;;;4881000;29;20092;-81
2022/03/04 04:54:58;;;;;;;61.28;33.65;;;13.40;2201.60;;;;;;4880768;29;20584;-82
2022/03/04 04:57:24;;;;;;;56.97;32.22;;;13.50;2201.60;;;;;;4864470;29;20161;-83
2022/03/04 04:59:56;;;;;;;40.42;24.83;;;13.50;2201.60;;;;;;4941320;29;20059;-82
2022/03/04 05:02:24;;;;;;;44.37;27.53;;;13.40;2201.60;;;;;;4941317;29;20035;-80
2022/03/04 05:04:52;;;;;;;52.17;37.38;;;13.40;2201.60;;;;;;4940459;29;20027;-80
2022/03/04 05:07:27;;;;;;;39.45;23.40;;;13.40;2201.60;;;;;;4941547;29;20016;-81
2022/03/04 05:09:56;;;;;;;36.97;25.08;;;13.60;2201.60;;;;;;4943189;29;20469;-80
2022/03/04 05:12:23;;;;;;;41.65;23.40;;;13.70;2201.60;;;;;;4943945;29;20019;-80
2022/03/04 05:14:51;;;;;;;53.78;30.30;;;13.60;2201.60;;;;;;4944021;29;20030;-79
2022/03/04 05:17:28;;;;;;;41.75;25.65;;;13.50;2201.60;;;;;;4942174;29;20409;-79
2022/03/04 05:20:30;;;;;;;46.63;27.67;;;13.40;2201.60;;;;;;4941212;29;20464;-79
2022/03/04 05:22:56;;;;;;;60.42;37.40;;;13.40;2201.60;;;;;;4957088;29;20043;-79
2022/03/04 05:25:24;;;;;;;73.47;40.33;;;13.40;2201.60;;;;;;4940385;29;20015;-80
2022/03/04 05:28:03;;;;;;;73.07;37.13;;;13.30;2201.60;;;;;;4940433;29;20019;-82
2022/03/04 05:34:28;;;;;;;83.07;43.78;;;13.40;2201.60;;;;;;4956403;28;20027;-79
2022/03/04 05:37:03;;;;;;;63.42;39.78;;;13.30;2201.60;;;;;;4928718;29;20380;-80
2022/03/04 05:40:11;;;;;;;;;;;;;;;;;;;;;
2022/03/04 05:46:40;;;;;;;54.08;37.58;;;13.70;2201.60;;;;;;4879170;29;20068;-86
2022/03/04 05:49:11;;;;;;;68.32;41.60;;;38.50;2201.60;;;;;;4864028;29;20074;-82
2022/03/04 05:51:40;;;;;;;132.02;75.45;;;38.60;2201.60;;;;;;4863876;29;20496;-83
2022/03/04 05:54:21;;;;;;;91.38;54.53;;;38.70;2201.60;;;;;;4863239;29;20475;-81
2022/03/04 05:57:12;;;;;;;249.20;144.18;;;38.70;2201.60;;;;;;4863716;29;20424;-82
2022/03/04 06:00:07;;;;;;;145.10;91.25;;;38.50;2201.60;;;;;;4863191;29;20024;-82
2022/03/04 06:02:33;;;;;;;83.22;49.75;;;38.40;2201.60;;;;;;4863292;29;20429;-82
2022/03/04 06:04:59;;;;;;;78.10;48.97;;;13.70;2201.60;;;;;;4920880;29;20024;-81
2022/03/04 06:11:40;;;;;;;81.25;47.10;;;13.50;2201.60;;;;;;4937990;29;20062;-82
2022/03/04 06:24:10;;;;;;;188.05;109.50;;;13.30;2201.60;;;;;;4879025;29;20505;-84
2022/03/04 06:26:57;;;;;;;105.28;60.72;;;13.30;2201.60;;;;;;4950602;29;20466;-83
2022/03/04 06:29:37;;;;;;;100.43;58.10;;;13.40;2201.60;;;;;;4936626;29;20343;-83
2022/03/04 06:32:31;;;;;;;100.20;59.55;;;13.30;2201.60;;;;;;4936523;29;20023;-85
2022/03/04 06:39:13;;;;;;;127.40;76.18;;;13.40;2201.60;;;;;;4900510;29;20058;-86
2022/03/04 06:42:14;;;;;;;214.15;106.38;;;13.30;2201.60;;;;;;4936554;29;20459;-85
2022/03/04 06:48:29;;;;;;;153.43;86.63;;;13.10;2201.60;;;;;;4875232;29;20045;-83
2022/03/04 06:51:50;;;;;;;120.97;71.43;;;13.20;2201.60;;;;;;4844400;29;20037;-84
2022/03/04 06:57:50;;;;;;;113.88;65.60;;;13.00;2201.60;;;;;;4878375;29;20028;-84
2022/03/04 07:00:16;;;;;;;98.82;59.97;;;12.90;2201.60;;;;;;4862932;29;20025;-81
2022/03/04 07:02:47;;;;;;;86.03;49.08;;;12.90;2201.60;;;;;;4878154;29;20148;-83
2022/03/04 07:05:21;;;;;;;78.72;48.00;;;0.10;2201.60;;;;;;4907673;29;20051;-83
2022/03/04 07:08:11;;;;;;;;;;;;;;;;;;;;;
2022/03/04 07:11:14;;;;;;;125.20;65.95;;;0.40;2201.60;;;;;;4936681;29;20355;-84
2022/03/04 07:14:06;;;;;;;87.97;54.55;;;0.50;2201.60;;;;;;4919954;29;20051;-82
2022/03/04 07:16:45;;;;;;;111.22;62.83;;;0.60;2201.60;;;;;;4919282;29;20031;-83
2022/03/04 07:19:40;;;;;;;75.75;45.42;;;0.70;2201.60;;;;;;4919278;29;20492;-84
2022/03/04 07:22:06;;;;;;;69.63;43.50;;;0.80;2201.60;;;;;;4919806;29;20410;-85
2022/03/04 07:24:38;;;;;;;73.20;41.25;;;0.90;2201.60;;;;;;4919415;29;20379;-84
2022/03/04 07:27:04;;;;;;;86.68;50.65;;;26.00;2201.60;;;;;;4919823;29;20031;-84
2022/03/04 07:29:33;;;;;;;91.97;54.08;;;25.70;2201.60;;;;;;4919568;29;20031;-83
2022/03/04 07:39:13;;;;;;;75.10;43.92;;;26.10;2201.60;;;;;;4937102;29;20030;-85
2022/03/04 07:41:39;;;;;;;72.05;43.40;;;26.30;2201.60;;;;;;4919035;29;20123;-82
2022/03/04 07:44:18;;;;;;;51.20;30.25;;;26.40;2201.60;;;;;;4918941;29;20058;-82
2022/03/04 07:46:48;;;;;;;53.72;31.65;;;26.50;2201.60;;;;;;4919462;29;20748;-84
2022/03/04 07:49:25;;;;;;;63.47;37.70;;;51.30;2227.20;;;;;;4919346;29;20020;-82
2022/03/04 07:51:54;;;;;;;67.60;39.95;;;51.40;2227.20;;;;;;4919265;29;20075;-82
2022/03/04 08:02:54;;;;;;;;;;;;;;;;;;;;;
2022/03/04 08:13:19;;;;;;;63.95;38.10;;;76.80;2227.20;;;;;;4758380;30;20444;-82
2022/03/04 08:16:49;;;;;;;51.97;33.47;;;77.00;2227.20;;;;;;4769967;29;20156;-79
2022/03/04 08:36:24;;;;;;;54.53;34.55;;;128.10;2252.80;;;;;;4878440;29;20021;-81
2022/03/04 08:42:18;;;;;;;40.72;25.55;;;102.60;2227.20;;;;;;4903201;29;20034;-78
2022/03/04 08:44:52;;;;;;;52.47;29.73;;;102.80;2227.20;;;;;;4957257;29;20019;-81
2022/03/04 08:47:18;;;;;;;46.42;28.30;;;102.60;2227.20;;;;;;4957028;29;20024;-78
2022/03/04 08:53:44;;;;;;;51.08;30.80;;;103.00;2227.20;;;;;;4903060;29;20079;-83
2022/03/04 08:59:56;;;;;;;36.42;24.00;;;103.30;2227.20;;;;;;4899370;29;20532;-82
2022/03/04 09:26:00;;;;;;;43.75;24.60;;;153.60;2252.80;;;;;;4917629;29;20394;-79
2022/03/04 09:28:26;;;;;;;49.75;28.65;;;153.80;2252.80;;;;;;4917250;29;20032;-75
2022/03/04 09:30:52;;;;;;;48.58;29.08;;;153.80;2252.80;;;;;;4916868;29;20028;-76
2022/03/04 09:33:17;;;;;;;57.85;35.30;;;153.90;2252.80;;;;;;4918380;29;20394;-75
2022/03/04 09:35:43;;;;;;;47.83;31.10;;;154.20;2252.80;;;;;;4918095;29;20032;-74
2022/03/04 09:38:09;;;;;;;49.42;29.23;;;154.40;2252.80;;;;;;4923880;29;20016;-73
2022/03/04 09:40:36;;;;;;;38.92;23.77;;;154.40;2252.80;;;;;;4934644;29;20020;-75
2022/03/04 09:43:09;;;;;;;40.38;24.88;;;179.20;2252.80;;;;;;4916023;29;20390;-79
2022/03/04 09:45:35;;;;;;;;;;;179.30;2227.20;;;;;;4915316;29;20028;-75
2022/03/04 09:48:05;;;;;;;36.80;22.63;;;179.30;2201.60;;;;;;4902139;29;20368;-75
2022/03/04 09:50:32;;;;;;;36.47;23.75;;;179.40;2227.20;;;;;;4901874;29;20068;-74
2022/03/04 09:52:58;;;;;;;34.47;24.65;;;179.60;2176.00;;;;;;4901989;29;20032;-76
2022/03/04 09:55:24;;;;;;;45.03;27.60;;;179.70;2176.00;;;;;;4925389;29;20035;-75
2022/03/04 09:57:50;;;;;;;49.42;33.65;;;179.80;2150.40;;;;;;4939683;29;20035;-75
2022/03/04 10:00:17;;;;;;;42.13;26.48;;;180.10;2099.20;;;;;;4939664;29;20106;-77
2022/03/04 10:02:42;;;;;;;41.90;27.58;;;180.10;2099.20;;;;;;4939755;29;20033;-77
2022/03/04 10:05:08;;;;;;;33.17;21.63;;;204.80;2048.00;;;;;;4939501;29;20449;-75
2022/03/04 10:07:52;;;;;;;41.92;29.30;;;204.90;2048.00;;;;;;4939682;29;20026;-77
2022/03/04 10:10:22;;;;;;;35.92;23.92;;;205.10;2048.00;;;;;;4939719;29;20036;-78
2022/03/04 10:12:56;;;;;;;35.83;20.40;;;205.00;2073.60;;;;;;4939254;29;20082;-77
2022/03/04 10:15:25;;;;;;;36.65;24.33;;;204.80;2073.60;;;;;;4939610;29;20027;-77
2022/03/04 10:18:02;;;;;;;33.95;23.90;;;205.00;2022.40;;;;;;4939335;29;20023;-78
2022/03/04 10:20:38;;;;;;;43.65;28.40;;;205.20;1996.80;;;;;;4938873;28;20031;-80
2022/03/04 10:23:15;;;;;;;58.85;39.17;;;205.30;1996.80;;;;;;4939297;29;20031;-78
2022/03/04 10:25:46;;;;;;;29.42;19.80;;;205.60;1945.60;;;;;;4939127;29;20031;-77
2022/03/04 10:28:12;;;;;;;26.98;17.65;;;205.60;1843.20;;;;;;4939397;29;20019;-80
2022/03/04 10:30:43;;;;;;;27.27;19.10;;;205.50;1792.00;;;;;;4939274;29;20114;-77
2022/03/04 10:33:11;;;;;;;20.02;14.18;;;205.60;1766.40;;;;;;4939129;29;20059;-77
2022/03/04 10:35:37;;;;;;;25.08;17.27;;;205.70;1766.40;;;;;;4939191;29;20082;-80
2022/03/04 10:38:04;;;;;;;33.67;22.88;;;230.50;1766.40;;;;;;4939277;29;20023;-78
2022/03/04 10:40:42;;;;;;;28.35;17.58;;;230.60;1740.80;;;;;;4938922;29;20406;-80
2022/03/04 10:43:09;;;;;;;34.50;23.13;;;230.60;1740.80;;;;;;4939068;29;20126;-80
2022/03/04 10:45:42;;;;;;;21.02;14.50;;;230.70;1740.80;;;;;;4956294;29;20027;-78
2022/03/04 10:48:17;;;;;;;24.85;15.85;;;230.80;1740.80;;;;;;4938735;29;20059;-79
2022/03/04 10:50:47;;;;;;;20.08;14.00;;;231.20;1740.80;;;;;;4938917;29;20031;-81
2022/03/04 10:53:16;;;;;;;21.50;13.82;;;230.90;1740.80;;;;;;4936346;29;20027;-78
2022/03/04 10:55:46;;;;;;;32.80;20.30;;;230.80;1715.20;;;;;;4935449;29;20073;-80
2022/03/04 10:58:23;;;;;;;32.10;19.30;;;230.90;1740.80;;;;;;4937153;29;20031;-77
2022/03/04 11:00:55;;;;;;;30.52;18.15;;;230.90;1740.80;;;;;;4935349;29;20019;-77
2022/03/04 11:03:24;;;;;;;41.80;23.67;;;231.20;1689.60;;;;;;4936876;29;20035;-76
2022/03/04 11:05:53;;;;;;;27.88;19.08;;;256.10;1664.00;;;;;;4935469;29;20075;-76
2022/03/04 11:08:20;;;;;;;29.17;20.13;;;256.30;1664.00;;;;;;4935364;29;20027;-76
2022/03/04 11:10:47;;;;;;;20.60;13.00;;;256.30;1638.40;;;;;;4935472;29;20028;-79
2022/03/04 11:13:14;;;;;;;23.40;15.20;;;256.10;1612.80;;;;;;4935507;29;20138;-78
2022/03/04 11:15:41;;;;;;;34.10;22.25;;;256.20;1664.00;;;;;;4935396;29;20453;-78
2022/03/04 11:18:09;;;;;;;15.45;10.50;;;256.50;1638.40;;;;;;4935529;29;20110;-77
2022/03/04 11:20:37;;;;;;;15.27;10.68;;;256.50;1587.20;;;;;;4935402;29;20031;-79
2022/03/04 11:23:05;;;;;;;23.30;15.15;;;256.60;1561.60;;;;;;4935154;29;20421;-82
2022/03/04 11:25:39;;;;;;;58.50;36.20;;;256.80;1561.60;;;;;;4936665;29;20181;-78
2022/03/04 11:28:17;;;;;;;48.53;33.72;;;256.90;1587.20;;;;;;4938305;29;20036;-77
2022/03/04 11:31:00;;;;;;;59.45;40.75;;;281.80;1664.00;;;;;;4955752;29;20026;-77
2022/03/04 11:33:51;;;;;;;31.33;23.02;;;282.10;1664.00;;;;;;4937600;29;20062;-77
2022/03/04 11:36:25;;;;;;;29.95;18.58;;;282.30;1664.00;;;;;;4933353;29;20388;-79
2022/03/04 11:38:53;;;;;;;32.05;19.15;;;282.40;1664.00;;;;;;4955575;29;20027;-79
2022/03/04 11:41:24;;;;;;;30.00;21.08;;;307.20;1664.00;;;;;;4938286;29;20125;-79
2022/03/04 11:44:08;;;;;;;35.25;23.25;;;307.40;1638.40;;;;;;4937961;29;20100;-77
2022/03/04 11:47:02;;;;;;;37.25;22.77;;;307.80;1638.40;;;;;;4938143;29;20125;-77
2022/03/04 11:49:49;;;;;;;27.77;19.05;;;332.80;1612.80;;;;;;4937983;29;20180;-76
2022/03/04 11:52:25;;;;;;;35.60;20.77;;;333.30;1612.80;;;;;;4938228;29;20027;-78
2022/03/04 11:54:51;;;;;;;28.35;18.25;;;333.60;1561.60;;;;;;4938122;29;20449;-78
2022/03/04 11:57:30;;;;;;;21.73;14.13;;;333.70;1510.40;;;;;;4937617;29;20043;-78
2022/03/04 12:00:14;;;;;;;20.10;15.30;;;333.70;1459.20;;;;;;4938116;29;20115;-76
2022/03/04 12:02:47;;;;;;;19.73;15.48;;;358.50;1536.00;;;;;;4937967;29;20106;-78
2022/03/04 12:05:22;;;;;;;33.42;22.52;;;358.60;1510.40;;;;;;4938024;29;20082;-79
2022/03/04 12:08:11;;;;;;;23.42;16.10;;;358.60;1510.40;;;;;;4955344;29;20046;-78
2022/03/04 12:10:41;;;;;;;44.72;27.13;;;358.50;1510.40;;;;;;4937008;29;20078;-76
2022/03/04 12:13:25;;;;;;;40.90;25.95;;;358.40;1510.40;;;;;;4937776;29;20474;-77
2022/03/04 12:16:03;;;;;;;30.58;19.95;;;358.50;1484.80;;;;;;4937999;29;20500;-77
2022/03/04 12:18:35;;;;;;;239.25;129.82;;;358.50;1459.20;;;;;;4937428;29;20036;-76
2022/03/04 12:21:07;;;;;;;24.58;17.45;;;358.80;1459.20;;;;;;4937639;29;20023;-79
2022/03/04 12:23:42;;;;;;;27.40;21.35;;;358.70;1433.60;;;;;;4937636;29;20038;-76
2022/03/04 12:26:26;;;;;;;18.88;13.40;;;359.00;1459.20;;;;;;4937815;29;20031;-76
2022/03/04 12:29:04;;;;;;;20.15;13.90;;;359.20;1382.40;;;;;;4937780;29;20602;-76
2022/03/04 12:31:38;;;;;;;27.02;17.00;;;359.20;1408.00;;;;;;4935783;29;20023;-76
2022/03/04 12:34:05;;;;;;;22.25;14.13;;;384.10;1408.00;;;;;;4936179;29;20027;-76
2022/03/04 12:36:31;;;;;;;24.60;19.33;;;384.50;1382.40;;;;;;4937367;29;20500;-76
2022/03/04 12:38:59;;;;;;;24.30;16.38;;;384.60;1356.80;;;;;;4936744;29;20051;-75
2022/03/04 12:41:30;;;;;;;23.25;16.38;;;409.60;1356.80;;;;;;4956371;29;20413;-74
2022/03/04 12:43:57;;;;;;;27.67;17.60;;;384.90;1305.60;;;;;;4950883;29;20027;-76
2022/03/04 12:46:26;;;;;;;26.05;17.63;;;384.60;1305.60;;;;;;4941729;29;20122;-76
2022/03/04 12:48:52;;;;;;;28.90;22.85;;;384.80;1331.20;;;;;;4958521;29;20044;-77
2022/03/04 12:51:23;;;;;;;32.90;18.90;;;384.80;1228.80;;;;;;4940834;29;20038;-75
2022/03/04 12:53:49;;;;;;;21.75;14.95;;;384.30;1305.60;;;;;;4940786;29;20027;-75
2022/03/04 12:56:17;;;;;;;19.90;14.18;;;384.10;1254.40;;;;;;4958111;29;20456;-76
2022/03/04 12:58:55;;;;;;;17.65;14.35;;;384.20;1254.40;;;;;;4940841;29;20019;-76
2022/03/04 13:01:23;;;;;;;24.30;17.17;;;384.40;1254.40;;;;;;4958090;29;20365;-77
2022/03/04 13:03:54;;;;;;;27.55;18.15;;;384.80;1228.80;;;;;;4940844;29;20031;-76
2022/03/04 13:06:23;;;;;;;21.25;15.02;;;384.60;1228.80;;;;;;4940467;29;20125;-76
2022/03/04 13:08:53;;;;;;;25.08;19.00;;;384.40;1254.40;;;;;;4958058;29;20058;-76
2022/03/04 13:11:23;;;;;;;19.13;12.52;;;384.70;1228.80;;;;;;4940608;29;20027;-75
2022/03/04 13:14:02;;;;;;;22.65;14.38;;;384.60;1203.20;;;;;;4940491;29;20082;-78
2022/03/04 13:16:46;;;;;;;23.10;15.25;;;384.70;1228.80;;;;;;4958219;29;20023;-77
2022/03/04 13:19:18;;;;;;;21.88;13.93;;;384.60;1228.80;;;;;;4957882;29;20110;-76
2022/03/04 13:21:49;;;;;;;;;;;384.80;1228.80;;;;;;4940593;29;20075;-76
2022/03/04 13:24:16;;;;;;;15.07;11.52;;;384.60;1228.80;;;;;;4957786;29;19933;-75
2022/03/04 13:26:50;;;;;;;22.20;16.15;;;384.80;1228.80;;;;;;4957858;29;20019;-76
2022/03/04 13:29:16;;;;;;;25.75;15.10;;;384.90;1228.80;;;;;;4957574;29;20023;-75
2022/03/04 13:31:43;;;;;;;24.23;16.23;;;384.70;1203.20;;;;;;4957692;29;20023;-75
2022/03/04 13:34:11;;;;;;;74.07;35.67;;;384.90;1203.20;;;;;;4957255;29;20055;-75
2022/03/04 13:36:47;;;;;;;54.72;31.30;;;384.70;1203.20;;;;;;4940279;29;20023;-77
2022/03/04 13:39:22;;;;;;;28.58;18.17;;;384.30;1228.80;;;;;;4940304;29;20533;-74
2022/03/04 13:42:06;;;;;;;43.30;29.92;;;384.50;1254.40;;;;;;4957429;29;20106;-75
2022/03/04 13:44:31;;;;;;;30.17;19.02;;;384.40;1228.80;;;;;;4940026;29;20038;-74
2022/03/04 13:47:07;;;;;;;19.55;14.60;;;384.50;1254.40;;;;;;4940158;29;20023;-75
2022/03/04 13:49:49;;;;;;;25.20;19.45;;;384.50;1254.40;;;;;;4940102;29;20028;-75
2022/03/04 13:52:17;;;;;;;27.38;18.85;;;384.80;1254.40;;;;;;4939812;29;20371;-75
2022/03/04 13:54:55;;;;;;;25.55;16.67;;;384.70;1254.40;;;;;;4939810;28;20154;-75
2022/03/04 13:57:47;;;;;;;20.42;13.93;;;384.90;1254.40;;;;;;4939383;29;20052;-74
2022/03/04 14:00:17;;;;;;;19.53;14.50;;;384.70;1228.80;;;;;;4954034;29;20377;-75
2022/03/04 14:02:47;;;;;;;18.15;14.10;;;384.20;1254.40;;;;;;4939766;29;20031;-75
2022/03/04 14:05:30;;;;;;;19.58;14.20;;;384.10;1254.40;;;;;;4939628;29;20031;-76
2022/03/04 14:08:06;;;;;;;23.88;18.55;;;384.40;1254.40;;;;;;4939764;29;20023;-76
2022/03/04 14:10:34;;;;;;;18.58;13.77;;;384.10;1228.80;;;;;;4939529;29;20034;-74
2022/03/04 14:13:01;;;;;;;32.28;19.10;;;384.10;1228.80;;;;;;4956402;29;20035;-75
2022/03/04 14:15:27;;;;;;;24.35;16.17;;;359.20;1280.00;;;;;;4956818;29;20153;-75
2022/03/04 14:17:59;;;;;;;25.58;16.83;;;358.80;1254.40;;;;;;4939460;29;20346;-75
2022/03/04 14:20:26;;;;;;;21.17;14.73;;;358.70;1280.00;;;;;;4956212;29;20023;-74
2022/03/04 14:22:56;;;;;;;17.52;13.30;;;333.70;1280.00;;;;;;4956688;29;20034;-75
2022/03/04 14:25:22;;;;;;;20.85;15.75;;;333.50;1254.40;;;;;;4956266;29;20023;-75
2022/03/04 14:27:52;;;;;;;37.92;30.80;;;333.30;1280.00;;;;;;4939015;29;20102;-75
2022/03/04 14:30:29;;;;;;;20.70;13.48;;;333.30;1280.00;;;;;;4938943;29;20034;-74
2022/03/04 14:32:56;;;;;;;20.95;15.10;;;333.10;1280.00;;;;;;4939391;29;20031;-75
2022/03/04 14:35:25;;;;;;;37.55;25.73;;;333.20;1305.60;;;;;;4939062;29;20449;-75
2022/03/04 14:37:51;;;;;;;37.13;25.02;;;333.00;1331.20;;;;;;4956149;29;20019;-74
2022/03/04 14:40:21;;;;;;;37.30;23.80;;;332.90;1356.80;;;;;;4938904;29;20524;-75
2022/03/04 14:42:49;;;;;;;42.33;27.45;;;308.00;1356.80;;;;;;4939061;29;20035;-75
2022/03/04 14:45:15;;;;;;;39.42;26.25;;;308.00;1408.00;;;;;;4956329;29;20027;-75
2022/03/04 14:47:43;;;;;;;27.65;19.88;;;307.90;1433.60;;;;;;4938724;29;20023;-75
2022/03/04 14:50:10;;;;;;;32.63;22.50;;;307.60;1433.60;;;;;;4938873;29;20051;-75
2022/03/04 14:52:36;;;;;;;49.47;28.38;;;307.40;1408.00;;;;;;4939000;29;20051;-73
2022/03/04 14:55:04;;;;;;;45.55;29.30;;;307.40;1459.20;;;;;;4938505;29;20066;-78
2022/03/04 14:57:30;;;;;;;38.97;23.77;;;307.20;1433.60;;;;;;4938936;29;20446;-78
2022/03/04 14:59:57;;;;;;;34.47;22.92;;;282.50;1408.00;;;;;;4938825;29;20034;-77
2022/03/04 15:02:24;;;;;;;31.88;21.33;;;282.40;1433.60;;;;;;4938389;29;20378;-77
2022/03/04 15:04:50;;;;;;;38.88;26.02;;;282.20;1433.60;;;;;;4956396;29;20039;-76
2022/03/04 15:07:16;;;;;;;35.88;23.90;;;282.20;1459.20;;;;;;4938570;29;20114;-78
2022/03/04 15:09:42;;;;;;;32.78;22.42;;;282.20;1459.20;;;;;;4938387;29;20376;-78
2022/03/04 15:12:10;;;;;;;39.25;27.73;;;282.20;1459.20;;;;;;4938787;29;20461;-79
2022/03/04 15:14:37;;;;;;;45.55;27.10;;;282.10;1484.80;;;;;;4938615;29;20050;-79
2022/03/04 15:17:04;;;;;;;50.75;27.90;;;282.40;1459.20;;;;;;4938342;29;20450;-79
2022/03/04 15:19:35;;;;;;;56.65;40.65;;;281.90;1484.80;;;;;;4938273;29;20027;-79
2022/03/04 15:22:03;;;;;;;55.03;33.53;;;281.80;1510.40;;;;;;4938270;29;20031;-78
2022/03/04 15:24:30;;;;;;;58.55;34.95;;;281.70;1510.40;;;;;;4937908;29;20026;-78
2022/03/04 15:26:58;;;;;;;48.45;32.17;;;281.70;1536.00;;;;;;4938596;29;20373;-77
2022/03/04 15:29:25;;;;;;;61.95;38.85;;;281.70;1536.00;;;;;;4938001;29;20023;-79
2022/03/04 15:31:51;;;;;;;69.60;43.08;;;281.60;1536.00;;;;;;4938448;29;20118;-77
2022/03/04 15:34:17;;;;;;;65.35;42.17;;;281.60;1561.60;;;;;;4938446;29;20078;-80
2022/03/04 15:36:43;;;;;;;64.32;40.55;;;256.90;1536.00;;;;;;4938074;29;20457;-80
2022/03/04 15:39:10;;;;;;;100.75;53.83;;;256.90;1536.00;;;;;;4938380;29;20029;-79
2022/03/04 15:41:37;;;;;;;53.72;36.55;;;256.80;1561.60;;;;;;4938324;29;20035;-78
2022/03/04 15:44:04;;;;;;;63.13;41.33;;;256.70;1561.60;;;;;;4937948;29;20086;-78
2022/03/04 15:46:29;;;;;;;49.25;34.45;;;256.50;1561.60;;;;;;4938255;29;20031;-80
2022/03/04 15:48:55;;;;;;;47.90;33.35;;;256.50;1587.20;;;;;;4938207;29;20030;-80
2022/03/04 15:51:21;;;;;;;47.35;32.95;;;256.40;1587.20;;;;;;4937993;29;20027;-77
2022/03/04 15:53:49;;;;;;;74.63;49.22;;;256.20;1612.80;;;;;;4938199;29;20031;-79
2022/03/04 15:56:16;;;;;;;58.78;38.17;;;256.20;1612.80;;;;;;4934701;29;20047;-79
2022/03/04 15:58:42;;;;;;;57.50;38.33;;;256.00;1612.80;;;;;;4934763;29;20027;-79
2022/03/04 16:01:08;;;;;;;51.58;34.72;;;256.00;1612.80;;;;;;4934846;29;20023;-81
2022/03/04 16:03:35;;;;;;;58.78;37.08;;;231.30;1612.80;;;;;;4934914;29;20063;-80
2022/03/04 16:06:01;;;;;;;60.15;36.70;;;231.20;1638.40;;;;;;4944573;28;20019;-80
2022/03/04 16:08:27;;;;;;;47.22;34.47;;;231.20;1638.40;;;;;;4957450;28;20105;-80
2022/03/04 16:10:53;;;;;;;57.55;37.92;;;231.20;1638.40;;;;;;4935135;29;20198;-79
2022/03/04 16:13:20;;;;;;;77.53;49.55;;;231.20;1638.40;;;;;;4934924;29;20122;-79
2022/03/04 16:15:49;;;;;;;77.07;52.40;;;231.10;1664.00;;;;;;4934957;29;20414;-80
2022/03/04 16:18:15;;;;;;;71.25;46.08;;;231.00;1664.00;;;;;;4934527;29;20030;-80
2022/03/04 16:20:42;;;;;;;85.55;53.70;;;230.80;1664.00;;;;;;4938158;29;20024;-80
2022/03/04 16:23:08;;;;;;;75.05;47.83;;;230.90;1664.00;;;;;;4939726;29;20362;-80
2022/03/04 16:25:35;;;;;;;74.10;47.67;;;205.70;1664.00;;;;;;4938016;29;20031;-80
2022/03/04 16:28:01;;;;;;;80.45;50.47;;;230.70;1664.00;;;;;;4938409;29;20034;-81
2022/03/04 16:30:27;;;;;;;75.00;51.33;;;230.50;1689.60;;;;;;4938350;29;20495;-79
2022/03/04 16:32:53;;;;;;;78.00;54.55;;;230.60;1689.60;;;;;;4938028;29;20027;-80
2022/03/04 16:35:19;;;;;;;75.85;51.92;;;230.60;1689.60;;;;;;4938233;29;20027;-80
2022/03/04 16:37:45;;;;;;;68.05;47.50;;;230.50;1689.60;;;;;;4938139;29;20074;-81
2022/03/04 16:40:11;;;;;;;79.85;54.85;;;230.50;1689.60;;;;;;4937928;29;20058;-78
2022/03/04 16:42:37;;;;;;;72.55;52.38;;;230.50;1715.20;;;;;;4938001;29;20028;-80
2022/03/04 16:45:04;;;;;;;68.93;50.40;;;230.50;1715.20;;;;;;4938111;29;20055;-79